Terminal Aerodrome Forecast
Issued by NWS Cleveland, OH

Home | Current Version | Previous Version | Graphics & Text | Print | Product List | Glossary On
Versions: 1 2 3 4 5 6 7 8 9 10 11 12 13 14 15 16 17
000
FTUS41 KCLE 170500
TAFERI
TAF
KERI 170524Z 1706/1806 20005KT P6SM SCT035
      TEMPO 1710/1713 5SM BR
     FM171300 18005KT P6SM SCT250
     FM171700 28008KT P6SM SCT250
     FM180200 22003KT P6SM SKC=

USA.gov is the U.S. government's official web portal to all federal, state and local government web resources and services.